Flight Track Log - Related Links

Times and Time Zones

All times are in EDT time to prevent confusion due to time zone crossing. See the EJA101 flight status page for this flight to view local times or setup timezone preferences in your user account.

Time Position Orientation Groundspeed Altitude Reporting Facility
EDT Latitude Longitude Course Direction KTS MPH feet Rate Location/Type
Mon 09:28:50 AM 40.8667 -74.0500 308° West 160 184 1,300  Level New York TRACON
Mon 09:30:50 AM 40.9167 -74.1333 308° West 216 249 3,800 1,567 Climbing New York TRACON
Mon 09:31:50 AM 40.9167 -74.2167 270° West 262 302 6,000 2,066 Climbing New York TRACON
Mon 09:33:53 AM 40.9128 -74.4450 269° West 302 348 10,100 2,283 Climbing New York Center
Mon 09:34:54 AM 40.9125 -74.5850 270° West 362 417 13,000 1,918 Climbing New York Center
Mon 09:35:55 AM 40.9144 -74.7197 271° West 406 467 14,000 1,091 Climbing New York Center
Mon 09:36:55 AM 40.9147 -74.8897 270° West 426 490 15,200 1,983 Climbing New York Center
Mon 09:37:53 AM 40.9175 -75.0492 271° West 431 496 17,900 2,395 Climbing New York Center
Mon 09:39:00 AM 40.8924 -75.2229 246° West  Level FlightAware Approximate
Mon 09:40:53 AM 40.8319 -75.5375 285° West 461 531 24,700  Level New York Center
Mon 09:42:53 AM 40.7511 -75.8828 253° West 488 562 28,900 1,914 Climbing New York Center
Mon 09:44:00 AM 40.6993 -76.0609 249° West  Level FlightAware Approximate
Mon 09:45:54 AM 40.6872 -76.4144 282° West 498 573 34,300  Level New York Center
Mon 09:46:00 AM 40.6758 -76.3616 285° West  Level FlightAware Approximate
Mon 09:46:55 AM 40.7144 -76.5808 282° West 480 552 36,500  Level New York Center
Mon 09:47:55 AM 40.7394 -76.7528 281° West 480 552 38,200 1,348 Climbing New York Center
Mon 09:49:53 AM 40.7903 -77.0972 281° West 485 558 40,500 1,112 Climbing New York Center
Mon 09:50:53 AM 40.8144 -77.2642 281° West 485 558 41,500 798 Climbing New York Center
Mon 09:51:00 AM 40.8011 -77.2235 282° West  Level FlightAware Approximate
Mon 09:53:01 AM 40.8625 -77.6206 280° West 476 548 43,000  Level Cleveland Center
Mon 09:54:02 AM 40.8878 -77.7897 281° West 481 554 43,000  Level Cleveland Center
Mon 09:55:02 AM 40.9106 -77.9619 280° West 481 554 43,000  Level Cleveland Center
Mon 09:57:00 AM 40.9575 -78.3067 280° West 476 548 43,000  Level Cleveland Center
Mon 09:59:01 AM 40.9972 -78.6519 279° West 481 554 43,000  Level Cleveland Center
Mon 10:01:00 AM 41.0333 -78.9889 278° West  Level FlightAware Approximate
Mon 10:04:00 AM 41.0983 -79.5222 280° West 486 559 43,000  Level Cleveland Center
Mon 10:05:01 AM 41.1164 -79.6983 278° West 486 559 43,000  Level Cleveland Center
Mon 10:06:01 AM 41.1342 -79.8581 278° West 486 559 43,000  Level Cleveland Center
Mon 10:07:02 AM 41.1561 -80.0508 279° West 481 554 43,000  Level Cleveland Center
Mon 10:08:00 AM 41.1541 -80.1809 280° West  Level FlightAware Approximate
Mon 10:08:00 AM 41.1736 -80.2272 278° West 481 554 43,000  Level Cleveland Center
Mon 10:09:00 AM 41.1768 -80.3503 280° West  Level FlightAware Approximate
Mon 10:09:00 AM 41.1833 -80.3988 274° West  Level FlightAware Approximate
Mon 10:10:01 AM 41.2053 -80.5611 274° West 486 559 43,000  Level Cleveland Center
Mon 10:11:01 AM 41.2261 -80.7569 278° West 486 559 43,000  Level Cleveland Center
Mon 10:12:02 AM 41.2444 -80.9367 278° West 486 559 43,000  Level Cleveland Center
Mon 10:14:00 AM 41.2746 -81.2731 277° West  Level FlightAware Approximate
Mon 10:15:00 AM 41.2958 -81.4675 277° West 481 554 43,000  Level Cleveland Center
Mon 10:16:01 AM 41.3131 -81.6281 278° West 486 559 43,000  Level Cleveland Center
Mon 10:18:02 AM 41.3428 -81.9797 277° West 486 559 43,000  Level Cleveland Center
Mon 10:20:01 AM 41.3689 -82.3567 275° West 486 559 43,000  Level Cleveland Center
Mon 10:21:01 AM 41.3783 -82.5314 274° West 476 548 43,000  Level Cleveland Center
Mon 10:22:02 AM 41.3878 -82.7086 274° West 482 555 43,000  Level Cleveland Center
Mon 10:23:37 AM 41.4058 -82.9919 275° West 488 562 43,000  Level Chicago Center
Mon 10:25:01 AM 41.4147 -83.2219 273° West 482 555 43,000  Level Cleveland Center
Mon 10:26:43 AM 41.4322 -83.5247 275° West 483 556 43,000  Level Chicago Center
Mon 10:27:45 AM 41.4403 -83.7036 273° West 485 558 43,000  Level Chicago Center
Mon 10:28:47 AM 41.4492 -83.8833 274° West 486 559 43,000  Level Chicago Center
Mon 10:30:00 AM 41.4499 -84.0935 270° West  Level FlightAware Approximate
Mon 10:30:51 AM 41.4661 -84.2797 270° West 489 563 43,000  Level Chicago Center
Mon 10:31:53 AM 41.4725 -84.4611 273° West 490 564 43,000  Level Chicago Center
Mon 10:32:55 AM 41.4803 -84.6406 273° West 487 560 43,000  Level Chicago Center
Mon 10:33:57 AM 41.4875 -84.8219 273° West 488 562 43,000  Level Chicago Center
Mon 10:34:59 AM 41.4936 -85.0031 273° West 490 564 43,000  Level Chicago Center
Mon 10:36:01 AM 41.5008 -85.2250 273° West 494 568 43,000  Level Chicago Center
Mon 10:37:03 AM 41.5067 -85.4117 272° West 495 570 43,000  Level Chicago Center
Mon 10:38:05 AM 41.5122 -85.6017 272° West 494 568 43,000  Level Chicago Center
Mon 10:39:07 AM 41.5175 -85.7850 272° West 490 564 43,000  Level Chicago Center
Mon 10:41:11 AM 41.5261 -86.1547 272° West 499 574 43,000  Level Chicago Center
Mon 10:43:15 AM 41.5319 -86.5233 271° West 497 572 43,000  Level Chicago Center
Mon 10:44:17 AM 41.5367 -86.7261 272° West 498 573 43,000  Level Chicago Center
Mon 10:46:00 AM 41.5334 -87.0165 270° West  Level FlightAware Approximate
Mon 10:47:23 AM 41.5425 -87.3125 270° West 494 568 43,000  Level Chicago Center
Mon 10:49:27 AM 41.5453 -87.6742 271° West 489 563 43,000  Level Chicago Center
Mon 10:50:28 AM 41.5458 -87.8539 270° West 489 563 43,000  Level Chicago Center
Mon 10:51:30 AM 41.5461 -88.0675 270° West 494 568 43,000  Level Chicago Center
Mon 10:52:32 AM 41.5464 -88.2450 270° West 495 570 43,000  Level Chicago Center
Mon 10:53:34 AM 41.5461 -88.4244 270° West 492 566 43,000  Level Chicago Center
Mon 10:54:36 AM 41.5467 -88.6039 270° West 490 564 43,000  Level Chicago Center
Mon 10:56:00 AM 41.5361 -88.8398 267° West  Level FlightAware Approximate
Mon 10:56:40 AM 41.5472 -89.0003 267° West 489 563 43,000  Level Chicago Center
Mon 10:57:42 AM 41.5478 -89.1789 270° West 486 559 43,000  Level Chicago Center
Mon 10:58:44 AM 41.5478 -89.3628 270° West 494 568 43,000  Level Chicago Center
Mon 10:59:46 AM 41.5469 -89.5586 270° West 490 564 43,000  Level Chicago Center
Mon 11:01:00 AM 41.5443 -89.7668 269° West  Level FlightAware Approximate
Mon 11:01:49 AM 41.5461 -89.9256 269° West 498 573 43,000  Level Chicago Center
Mon 11:03:00 AM 41.5423 -90.1252 269° West  Level FlightAware Approximate
Mon 11:06:59 AM 41.5336 -90.8472 263° West 486 559 43,000  Level Chicago Center
Mon 11:08:00 AM 41.5303 -91.0628 269° West 485 558 43,000  Level Chicago Center
Mon 11:09:02 AM 41.5267 -91.2431 269° West 487 560 43,000  Level Chicago Center
Mon 11:10:00 AM 41.5168 -91.3061 270° West  Level FlightAware Approximate
Mon 11:11:00 AM 41.5168 -91.4749 270° West  Level FlightAware Approximate
Mon 11:11:06 AM 41.5197 -91.6031 269° West 487 560 43,000  Level Chicago Center
Mon 11:12:00 AM 41.5127 -91.6433 263° West  Level FlightAware Approximate
Mon 11:12:08 AM 41.5031 -91.7797 263° West 484 557 43,000  Level Chicago Center
Mon 11:13:09 AM 41.4867 -91.9561 263° West 482 555 43,000  Level Chicago Center
Mon 11:14:11 AM 41.4658 -92.1678 263° West 484 557 43,000  Level Chicago Center
Mon 11:15:54 AM 41.4394 -92.4394 263° West 483 556 43,000  Level Minneapolis Center
Mon 11:16:56 AM 41.4183 -92.6483 262° West 481 554 43,000  Level Minneapolis Center
Mon 11:19:20 AM 41.3747 -93.0653 262° West 482 555 43,000  Level Chicago Center
Mon 11:20:03 AM 41.3628 -93.1719 262° West 483 556 43,000  Level Minneapolis Center
Mon 11:21:05 AM 41.3408 -93.3817 262° West 483 556 43,000  Level Minneapolis Center
Mon 11:23:09 AM 41.3047 -93.7236 262° West 473 544 43,000  Level Minneapolis Center
Mon 11:24:11 AM 41.2853 -93.8986 262° West 479 551 43,000  Level Minneapolis Center
Mon 11:25:13 AM 41.2644 -94.0733 261° West 482 555 43,000  Level Minneapolis Center
Mon 11:26:15 AM 41.2417 -94.2731 261° West 481 554 43,000  Level Minneapolis Center
Mon 11:27:17 AM 41.2214 -94.4486 261° West 481 554 43,000  Level Minneapolis Center
Mon 11:29:00 AM 41.1912 -94.6859 260° West  Level FlightAware Approximate
Mon 11:30:22 AM 41.1569 -94.9753 260° West 481 554 43,000  Level Minneapolis Center
Mon 11:32:00 AM 41.1203 -95.2449 260° West  Level FlightAware Approximate
Mon 11:33:28 AM 41.0842 -95.5356 260° West 482 555 43,000  Level Minneapolis Center
Mon 11:35:32 AM 41.0386 -95.8844 260° West 477 549 43,000  Level Minneapolis Center
Mon 11:36:34 AM 41.0156 -96.0589 260° West 476 548 43,000  Level Minneapolis Center
Mon 11:38:00 AM 40.9815 -96.2945 259° West  Level FlightAware Approximate
Mon 11:39:39 AM 40.9453 -96.5844 263° West 480 552 43,000  Level Minneapolis Center
Mon 11:41:00 AM 40.9223 -96.8082 262° West  Level FlightAware Approximate
Mon 11:42:45 AM 40.8864 -97.1392 262° West 476 548 43,000  Level Minneapolis Center
Mon 11:43:47 AM 40.8672 -97.3086 262° West 470 541 43,000  Level Minneapolis Center
Mon 11:44:48 AM 40.8497 -97.4961 263° West 470 541 43,000  Level Minneapolis Center
Mon 11:45:00 AM 40.8464 -97.4504 263° West  Level FlightAware Approximate
Mon 11:47:00 AM 40.8261 -97.7081 262° West  Level FlightAware Approximate
Mon 11:47:54 AM 40.7969 -98.0172 262° West 478 550 43,000  Level Minneapolis Center
Mon 11:48:00 AM 40.7964 -97.9656 262° West  Level FlightAware Approximate
Mon 11:49:51 AM 40.7597 -98.3658 262° West 477 549 43,000  Level Denver Center
Mon 11:50:59 AM 40.7400 -98.5397 262° West 477 549 43,000  Level Minneapolis Center
Mon 11:52:01 AM 40.7178 -98.7486 262° West 476 548 43,000  Level Minneapolis Center
Mon 11:53:03 AM 40.6989 -98.9214 262° West 473 544 43,000  Level Minneapolis Center
Mon 11:54:05 AM 40.6792 -99.0944 262° West 474 545 43,000  Level Minneapolis Center
Mon 11:55:07 AM 40.6592 -99.2672 261° West 475 547 43,000  Level Minneapolis Center
Mon 11:56:09 AM 40.6394 -99.4392 261° West 473 544 43,000  Level Minneapolis Center
Mon 11:57:10 AM 40.6189 -99.6094 261° West 472 543 43,000  Level Minneapolis Center
Mon 11:58:12 AM 40.5992 -99.7811 261° West 473 544 43,000  Level Minneapolis Center
Mon 11:59:10 AM 40.5769 -99.9528 260° West 476 548 43,000  Level Denver Center
Mon 12:01:14 PM 40.5331 -100.3083 261° West 473 544 43,000  Level Denver Center
Mon 12:03:18 PM 40.4872 -100.6617 260° West 469 540 43,000  Level Denver Center
Mon 12:04:20 PM 40.4664 -100.8233 260° West 467 537 43,000  Level Denver Center
Mon 12:06:00 PM 40.4255 -101.0946 260° West  Level FlightAware Approximate
Mon 12:07:26 PM 40.3939 -101.3631 260° West 469 540 43,000  Level Denver Center
Mon 12:08:28 PM 40.3708 -101.5239 259° West 469 540 43,000  Level Denver Center
Mon 12:09:30 PM 40.3489 -101.6833 260° West 465 535 43,000  Level Denver Center
Mon 12:10:32 PM 40.3225 -101.8706 260° West 467 537 43,000  Level Denver Center
Mon 12:12:36 PM 40.2725 -102.2178 259° West 468 539 43,000  Level Denver Center
Mon 12:13:00 PM 40.2619 -102.2349 260° West  Level FlightAware Approximate
Mon 12:13:38 PM 40.2492 -102.3764 259° West 465 535 43,000  Level Denver Center
Mon 12:14:40 PM 40.2217 -102.5611 259° West 463 533 43,000  Level Denver Center
Mon 12:15:42 PM 40.1978 -102.7225 259° West 464 534 43,000  Level Denver Center
Mon 12:16:44 PM 40.1722 -102.8908 259° West 468 539 43,000  Level Denver Center
Mon 12:17:46 PM 40.1456 -103.0589 258° West 469 540 43,000  Level Denver Center
Mon 12:18:49 PM 40.1158 -103.2561 259° West 469 540 43,000  Level Denver Center
Mon 12:19:51 PM 40.0897 -103.4250 259° West 469 540 43,000  Level Denver Center
Mon 12:20:53 PM 40.0619 -103.5947 258° West 476 548 43,000  Level Denver Center
Mon 12:21:55 PM 40.0356 -103.7653 259° West 478 550 43,000  Level Denver Center
Mon 12:23:59 PM 39.9825 -104.0961 258° West 459 528 43,000  Level Denver Center
Mon 12:25:01 PM 39.9553 -104.2647 258° West 469 540 43,000  Level Denver Center
Mon 12:26:03 PM 39.9233 -104.4550 258° West 461 531 43,000  Level Denver Center
Mon 12:28:07 PM 39.8650 -104.7825 257° West 462 532 43,000  Level Denver Center
Mon 12:31:13 PM 39.7633 -105.3000 256° West 460 529 43,000  Level Denver Center
Mon 12:32:15 PM 39.7292 -105.4667 255° West 470 541 43,000  Level Denver Center
Mon 12:33:17 PM 39.6972 -105.6297 256° West 463 533 43,000  Level Denver Center
Mon 12:34:19 PM 39.6642 -105.7958 256° West 468 539 43,000  Level Denver Center
Mon 12:37:22 PM 39.5658 -106.2883 256° West 472 543 43,000  Level Salt Lake Center
Mon 12:38:24 PM 39.5275 -106.4742 255° West 476 548 43,000  Level Salt Lake Center
Mon 12:39:29 PM 39.4944 -106.6331 255° West 476 548 43,000  Level Denver Center
Mon 12:41:29 PM 39.4203 -106.9739 254° West 474 545 43,000  Level Salt Lake Center
Mon 12:43:00 PM 39.3567 -107.1966 253° West  Level FlightAware Approximate
Mon 12:44:40 PM 39.2886 -107.4925 252° West 472 543 43,000  Level Denver Center
Mon 12:46:00 PM 39.2268 -107.7125 250° West  Level FlightAware Approximate
Mon 12:48:48 PM 39.1167 -108.1583 252° West 471 542 43,000  Level Denver Center
Mon 12:49:50 PM 39.0764 -108.3092 251° West 466 536 43,000  Level Denver Center
Mon 12:50:00 PM 39.0723 -108.2779 252° West  Level FlightAware Approximate
Mon 12:50:52 PM 39.0356 -108.4617 251° West 467 537 43,000  Level Denver Center
Mon 12:51:54 PM 38.9889 -108.6397 251° West 468 539 43,000  Level Denver Center
Mon 12:53:00 PM 38.8372 -108.7353 250° West  Level Estimated
Mon 12:53:00 PM 38.9330 -108.8035 246° West  Level FlightAware Approximate
Mon 12:53:50 PM 38.9083 -108.9414 246° West 467 537 43,000  Level Salt Lake Center
Mon 12:54:00 PM 38.7808 -108.8804 252° West  Level Estimated
Mon 12:55:00 PM 38.8617 -109.1156 251° West 463 533 43,000  Level Denver Center
Mon 12:56:02 PM 38.8131 -109.2919 251° West 468 539 43,000  Level Denver Center
Mon 12:57:00 PM 38.7642 -109.4614 250° West  Level FlightAware Approximate
Mon 12:58:58 PM 38.6892 -109.7436 251° West 467 537 43,000  Level Salt Lake Center
Mon 01:00:00 PM 38.6478 -109.8925 250° West 465 535 43,000  Level Salt Lake Center
Mon 01:01:12 PM 38.5900 -110.0911 250° West 469 540 43,000 -390 Level Denver Center
Mon 01:02:03 PM 38.5564 -110.2178 251° West 470 541 42,200 -1,113 Descending Salt Lake Center
Mon 01:03:16 PM 38.4986 -110.4158 250° West 469 540 40,700 -1,082 Descending Denver Center
Mon 01:04:00 PM 38.4618 -110.5233 251° West  Level FlightAware Approximate
Mon 01:05:00 PM 38.4190 -110.6758 249° West  Level FlightAware Approximate
Mon 01:05:56 PM 38.3703 -110.8228 249° West 468 539 38,000  Level Los Angeles Center
Mon 01:06:23 PM 38.3361 -110.8772 231° Southwest 483 556 38,000 -318 Level Denver Center
Mon 01:08:27 PM 38.2014 -111.1822 241° Southwest 492 566 37,200 -561 Descending Denver Center
Mon 01:09:14 PM 38.1492 -111.3039 241° Southwest 490 564 36,400 -991 Descending Salt Lake Center
Mon 01:10:16 PM 38.0728 -111.4456 236° Southwest 487 560 35,400 -1,073 Descending Salt Lake Center
Mon 01:11:17 PM 37.9811 -111.6125 235° Southwest 483 556 34,200 -1,024 Descending Salt Lake Center
Mon 01:12:19 PM 37.9031 -111.7528 235° Southwest 485 558 33,300 -968 Descending Salt Lake Center
Mon 01:13:21 PM 37.8272 -111.8925 236° Southwest 484 557 32,200 -634 Descending Salt Lake Center
Mon 01:14:22 PM 37.7492 -112.0333 235° Southwest 487 560 32,000 -65 Descending Salt Lake Center
Mon 01:16:25 PM 37.5931 -112.3136 235° Southwest 489 563 32,000  Level Salt Lake Center
Mon 01:18:21 PM 37.4328 -112.5947 234° Southwest 491 565 32,000  Level Los Angeles Center
Mon 01:19:30 PM 37.3539 -112.7350 235° Southwest 487 560 32,000  Level Salt Lake Center
Mon 01:22:30 PM 37.1164 -113.1511 234° Southwest 478 550 32,000 -796 Level Los Angeles Center
Mon 01:24:39 PM 36.9450 -113.4486 234° Southwest 479 551 27,900 -2,000 Descending Salt Lake Center
Mon 01:25:36 PM 36.8700 -113.5792 234° Southwest 468 539 25,800 -1,989 Descending Los Angeles Center
Mon 01:27:40 PM 36.7256 -113.8278 234° Southwest 439 505 21,900 -1,871 Descending Los Angeles Center
Mon 01:28:42 PM 36.6567 -113.9453 234° Southwest 424 488 20,000 -1,829 Descending Los Angeles Center
Mon 01:30:00 PM 36.5532 -114.1103 238° Southwest  Level FlightAware Approximate
Mon 01:30:47 PM 36.5264 -114.1903 238° Southwest 371 427 16,200  Level Los Angeles Center
Mon 01:31:49 PM 36.4817 -114.2869 240° Southwest 327 376 14,800 -1,432 Descending Los Angeles Center
Mon 01:32:15 PM 36.4650 -114.3325 246° West 297 342 14,100 -1,258 Descending Los Angeles Center
Mon 01:32:51 PM 36.4414 -114.3753 236° Southwest 301 346 13,500 -1,279 Descending Los Angeles Center
Mon 01:33:16 PM 36.4242 -114.4217 245° Southwest 296 341 12,800 -1,258 Descending Los Angeles Center
Mon 01:33:53 PM 36.4006 -114.4628 234° Southwest 295 339 12,200 -852 Descending Los Angeles Center
Mon 01:36:00 PM 36.1734 -114.6225 232° Southwest  Level FlightAware Approximate
Mon 01:36:19 PM 36.2283 -114.5631 232° Southwest 279 321 10,200  Level Los Angeles Center
Mon 01:37:12 PM 36.1914 -114.6078 224° Southwest 274 315 9,400 -936 Descending Los Angeles Center
Mon 01:38:08 PM 36.1606 -114.6953 246° West 244 281 8,500 -769 Descending Los Angeles Center
Mon 01:39:09 PM 36.1461 -114.7775 258° West 235 270 7,900 -688 Descending Los Angeles Center
Mon 01:41:20 PM 36.1342 -114.9200 264° West 199 229 6,300 -864 Descending Los Angeles Center
Mon 01:43:19 PM 36.1367 -115.0497 271° West 167 192 4,300 -1,006 Descending Los Angeles Center
Mon 01:44:19 PM 36.1361 -115.1058 269° West 141 162 3,300 -850 Descending Los Angeles Center
Mon 01:45:26 PM 36.1189 -115.1461 242° Southwest 114 131 2,500 -716 Descending Los Angeles Center
Mon 01:47:00 PM 36.0801 -115.1523 219° Southwest  Level Estimated
Mon 01:54:00 PM 36.0801 -115.1523 219° Southwest  Level Estimated

Login

Don't have an account? Register now (free) for customized features, flight alerts, and more!